Terminal Aerodrome Forecast
Issued by NWS

Home | Current Version | Previous Version | Text Only | Print | Product List | Glossary On
Versions: 1 2 3 4 5 6 7 8 9 10 11 12 13 14
000
FTUS45 KGJT 201120
TAFASE
TAF
KASE 201120Z 2012/2112 VRB04KT P6SM FEW090 SCT250
     FM202100 28008KT P6SM BKN080 OVC100
     FM202300 19007KT P6SM BKN070 OVC100
     FM210200 16007KT P6SM SCT070 BKN110=

USA.gov is the U.S. government's official web portal to all federal, state and local government web resources and services.